Running On Waves — 9HA3288 — position and weather

sailwx.info

Track history (hours):
 
Tides and Currents Weather Stations Pressure Air Temp Water Temp Dewpoint Dewpoint Depression Visibility Wind Speed Wind Dir Waves Ship Positions

Running On Waves

Last reported at 2018-Jun-09 09:44 UTC. Time now 2018-Jun-19 12:31 UTC.
Position N 37°24' E 023°31'.
Warning: this ship's position is 10 days out of date.

Length 64 m; draft 3.6 m.

Type: Sailing vessel. MMSI: 229383000.

Date/timePositionNaut miles runAvg speedWind from/ knotsBaromVisibWave heightAir tempDewpointWater temp
2018-Jun-09 09:44N 37°24' E 023°31'2 7.7
2018-Jun-09 09:30N 37°25' E 023°33'5 7.4
2018-Jun-09 08:52N 37°30' E 023°35'3 7.3
2018-Jun-09 08:30N 37°32' E 023°34'4 7.6
2018-Jun-09 08:00N 37°35' E 023°32'4 7.5
2018-Jun-09 07:30N 37°38' E 023°29'4 7.5
2018-Jun-09 07:00N 37°41' E 023°25'3 6.8
2018-Jun-09 06:30N 37°44' E 023°25'0 0.5
2018-Jun-09 05:57N 37°45' E 023°25'0 0.1
2018-Jun-09 05:27N 37°44' E 023°25'0 0.0
2018-Jun-09 05:00N 37°44' E 023°25'0 0.0
2018-Jun-09 04:30N 37°44' E 023°25'0 0.1
2018-Jun-09 03:54N 37°45' E 023°25'0 0.0
2018-Jun-09 03:30N 37°45' E 023°25'0 0.0
2018-Jun-09 03:00N 37°45' E 023°25'0 0.0
2018-Jun-09 02:30N 37°45' E 023°25'0 0.0
2018-Jun-09 02:00N 37°45' E 023°25'0 0.0
2018-Jun-09 01:30N 37°45' E 023°25'0 0.0
2018-Jun-09 01:00N 37°45' E 023°25'0 0.0
2018-Jun-09 00:30N 37°45' E 023°25'0 0.6
2018-Jun-09 00:01N 37°45' E 023°25'3 5.6
2018-Jun-08 23:30N 37°45' E 023°21'3 6.4
2018-Jun-08 23:00N 37°46' E 023°17'3 6.5
2018-Jun-08 22:31N 37°48' E 023°14'3 6.3
2018-Jun-08 22:01N 37°50' E 023°11'3 6.5
2018-Jun-08 21:31N 37°53' E 023°09'3 6.5
2018-Jun-08 21:01N 37°53' E 023°05'3 6.1
2018-Jun-08 20:30N 37°55' E 023°01'3 5.1
2018-Jun-08 19:54N 37°57' E 022°58'2 4.7
2018-Jun-08 19:30N 37°58' E 022°56'3 6.0
2018-Jun-08 19:00N 37°59' E 022°53'7 6.2
2018-Jun-08 17:54N 38°04' E 022°46'5 5.5
2018-Jun-08 17:05N 38°07' E 022°43'  
Track history (hours):
 
Tides and Currents Weather Stations Pressure Air Temp Water Temp Dewpoint Dewpoint Depression Visibility Wind Speed Wind Dir Waves Ship Positions

Running On Waves

Last reported at 2018-Jun-09 09:44 UTC. Time now 2018-Jun-19 12:31 UTC.
Position N 37°24' E 023°31'.
Warning: this ship's position is 10 days out of date.

Length 64 m; draft 3.6 m.

Type: Sailing vessel. MMSI: 229383000.

Date/timePositionNaut miles runAvg speedWind from/ knotsBaromVisibWave heightAir tempDewpointWater temp
2018-Jun-09 09:44N 37°24' E 023°31'2 7.7
2018-Jun-09 09:30N 37°25' E 023°33'5 7.4
2018-Jun-09 08:52N 37°30' E 023°35'3 7.3
2018-Jun-09 08:30N 37°32' E 023°34'4 7.6
2018-Jun-09 08:00N 37°35' E 023°32'4 7.5
2018-Jun-09 07:30N 37°38' E 023°29'4 7.5
2018-Jun-09 07:00N 37°41' E 023°25'3 6.8
2018-Jun-09 06:30N 37°44' E 023°25'0 0.5
2018-Jun-09 05:57N 37°45' E 023°25'0 0.1
2018-Jun-09 05:27N 37°44' E 023°25'0 0.0
2018-Jun-09 05:00N 37°44' E 023°25'0 0.0
2018-Jun-09 04:30N 37°44' E 023°25'0 0.1
2018-Jun-09 03:54N 37°45' E 023°25'0 0.0
2018-Jun-09 03:30N 37°45' E 023°25'0 0.0
2018-Jun-09 03:00N 37°45' E 023°25'0 0.0
2018-Jun-09 02:30N 37°45' E 023°25'0 0.0
2018-Jun-09 02:00N 37°45' E 023°25'0 0.0
2018-Jun-09 01:30N 37°45' E 023°25'0 0.0
2018-Jun-09 01:00N 37°45' E 023°25'0 0.0
2018-Jun-09 00:30N 37°45' E 023°25'0 0.6
2018-Jun-09 00:01N 37°45' E 023°25'3 5.6
2018-Jun-08 23:30N 37°45' E 023°21'3 6.4
2018-Jun-08 23:00N 37°46' E 023°17'3 6.5
2018-Jun-08 22:31N 37°48' E 023°14'3 6.3
2018-Jun-08 22:01N 37°50' E 023°11'3 6.5
2018-Jun-08 21:31N 37°53' E 023°09'3 6.5
2018-Jun-08 21:01N 37°53' E 023°05'3 6.1
2018-Jun-08 20:30N 37°55' E 023°01'3 5.1
2018-Jun-08 19:54N 37°57' E 022°58'2 4.7
2018-Jun-08 19:30N 37°58' E 022°56'3 6.0
2018-Jun-08 19:00N 37°59' E 022°53'7 6.2
2018-Jun-08 17:54N 38°04' E 022°46'5 5.5
2018-Jun-08 17:05N 38°07' E 022°43'  

Dump ship's entire track history